Time;durP1;ratioP1;P1;durP2;ratioP2;P2;SDS_P1;SDS_P2;PMS_P1;PMS_P2;Temp;Humidity;BMP_temperature;BMP_pressure;BME280_temperature;BME280_humidity;BME280_pressure;Samples;Min_cycle;Max_cycle;Signal;HPM_P1;HPM_P2
2023/03/23 00:01:39;;;;;;;6.43;5.73;;;;;;;;;;6261584;28;20226;-48
2023/03/23 00:04:42;;;;;;;7.00;5.43;;;;;;;;;;6227782;28;20202;-49
2023/03/23 00:07:44;;;;;;;6.97;5.40;;;;;;;;;;6230295;28;20201;-52
2023/03/23 00:10:48;;;;;;;9.77;5.73;;;;;;;;;;6258290;28;20190;-48
2023/03/23 00:13:53;;;;;;;6.37;4.90;;;;;;;;;;6229933;28;20206;-51
2023/03/23 00:16:54;;;;;;;6.80;5.73;;;;;;;;;;6241604;28;20187;-50
2023/03/23 00:19:56;;;;;;;5.83;4.97;;;;;;;;;;6231971;28;20196;-52
2023/03/23 00:22:59;;;;;;;8.60;5.17;;;;;;;;;;6250248;28;20252;-50
2023/03/23 00:26:01;;;;;;;6.37;5.10;;;;;;;;;;6233984;28;20211;-53
2023/03/23 00:29:04;;;;;;;6.53;5.33;;;;;;;;;;6266847;28;20256;-50
2023/03/23 00:32:05;;;;;;;5.53;5.00;;;;;;;;;;6237347;28;20234;-50
2023/03/23 00:35:06;;;;;;;5.87;4.73;;;;;;;;;;6249580;28;20236;-52
2023/03/23 00:38:08;;;;;;;6.27;5.67;;;;;;;;;;6247318;28;20210;-49
2023/03/23 00:41:11;;;;;;;5.90;5.00;;;;;;;;;;6241298;28;20199;-49
2023/03/23 00:44:19;;;;;;;5.40;4.90;;;;;;;;;;6254539;28;20195;-50
2023/03/23 00:47:20;;;;;;;7.03;4.90;;;;;;;;;;6247999;28;20217;-49
2023/03/23 00:50:22;;;;;;;7.93;5.93;;;;;;;;;;6257077;28;20267;-49
2023/03/23 00:53:23;;;;;;;5.13;4.63;;;;;;;;;;6241798;28;20273;-49
2023/03/23 00:56:26;;;;;;;8.27;4.97;;;;;;;;;;6240432;28;20296;-49
2023/03/23 00:59:27;;;;;;;5.67;4.80;;;;;;;;;;6256242;28;20213;-49
2023/03/23 01:02:28;;;;;;;5.50;5.00;;;;;;;;;;6272233;28;20236;-52
2023/03/23 01:05:31;;;;;;;6.13;4.87;;;;;;;;;;6233257;28;20206;-48
2023/03/23 01:08:32;;;;;;;5.90;5.10;;;;;;;;;;6242150;28;20183;-51
2023/03/23 01:11:34;;;;;;;6.67;5.17;;;;;;;;;;6261539;28;20190;-50
2023/03/23 01:14:35;;;;;;;7.30;5.10;;;;;;;;;;6260525;28;20182;-49
2023/03/23 01:17:36;;;;;;;6.80;5.40;;;;;;;;;;6223477;28;20191;-48
2023/03/23 01:20:37;;;;;;;5.53;4.83;;;;;;;;;;6229374;28;20225;-49
2023/03/23 01:23:39;;;;;;;5.40;4.90;;;;;;;;;;6232095;28;20620;-49
2023/03/23 01:26:40;;;;;;;5.10;4.60;;;;;;;;;;6249125;28;20214;-48
2023/03/23 01:29:41;;;;;;;7.50;5.57;;;;;;;;;;6264290;28;20204;-49
2023/03/23 01:32:42;;;;;;;6.13;5.53;;;;;;;;;;6262546;28;20213;-48
2023/03/23 01:35:43;;;;;;;6.23;5.00;;;;;;;;;;6228018;28;20244;-48
2023/03/23 01:38:45;;;;;;;7.60;4.97;;;;;;;;;;6228934;28;20198;-52
2023/03/23 01:41:47;;;;;;;6.47;5.67;;;;;;;;;;6248335;28;20199;-49
2023/03/23 01:44:48;;;;;;;7.00;5.30;;;;;;;;;;6225004;28;20198;-49
2023/03/23 01:48:11;;;;;;;7.80;5.30;;;;;;;;;;6256601;28;20234;-50
2023/03/23 01:51:16;;;;;;;5.47;4.87;;;;;;;;;;6248024;28;20274;-48
2023/03/23 01:54:19;;;;;;;6.50;5.37;;;;;;;;;;6245426;28;20203;-52
2023/03/23 01:57:22;;;;;;;5.53;5.03;;;;;;;;;;6252523;28;20274;-50
2023/03/23 02:00:24;;;;;;;6.33;5.23;;;;;;;;;;6248470;28;20198;-52
2023/03/23 02:03:25;;;;;;;6.30;5.17;;;;;;;;;;6247051;28;20193;-48
2023/03/23 02:06:26;;;;;;;6.10;5.03;;;;;;;;;;6259890;28;20222;-52
2023/03/23 02:09:27;;;;;;;8.17;6.00;;;;;;;;;;6254638;28;20229;-49
2023/03/23 02:12:28;;;;;;;6.60;5.23;;;;;;;;;;6241301;28;20183;-51
2023/03/23 02:15:35;;;;;;;5.73;5.13;;;;;;;;;;6226874;28;20195;-50
2023/03/23 02:18:49;;;;;;;5.93;5.20;;;;;;;;;;6246874;28;20187;-49
2023/03/23 02:22:09;;;;;;;5.90;5.00;;;;;;;;;;6256253;28;20257;-50
2023/03/23 02:25:16;;;;;;;6.37;5.73;;;;;;;;;;6247050;28;20218;-49
2023/03/23 02:28:30;;;;;;;5.70;5.00;;;;;;;;;;6255046;28;20641;-49
2023/03/23 02:31:40;;;;;;;7.03;5.43;;;;;;;;;;6249628;28;20264;-49
2023/03/23 02:34:41;;;;;;;8.10;6.03;;;;;;;;;;6244808;28;20278;-48
2023/03/23 02:38:02;;;;;;;6.70;5.43;;;;;;;;;;6253082;28;20224;-51
2023/03/23 02:41:04;;;;;;;5.70;5.13;;;;;;;;;;6247444;28;20195;-51
2023/03/23 02:44:05;;;;;;;8.53;6.00;;;;;;;;;;6246125;28;20194;-50
2023/03/23 02:47:09;;;;;;;5.93;5.33;;;;;;;;;;6225994;28;20345;-47
2023/03/23 02:50:12;;;;;;;5.37;4.87;;;;;;;;;;6247088;28;20224;-49
2023/03/23 02:53:14;;;;;;;7.27;5.80;;;;;;;;;;6247542;28;20236;-48
2023/03/23 02:56:15;;;;;;;6.70;5.20;;;;;;;;;;6247371;28;20188;-49
2023/03/23 02:59:16;;;;;;;6.17;5.57;;;;;;;;;;6247974;28;20210;-48
2023/03/23 03:02:32;;;;;;;8.73;5.10;;;;;;;;;;6230104;28;20194;-54
2023/03/23 03:05:41;;;;;;;6.17;5.43;;;;;;;;;;6259532;28;20306;-53
2023/03/23 03:08:45;;;;;;;6.00;5.40;;;;;;;;;;6239043;28;20205;-48
2023/03/23 03:11:48;;;;;;;8.63;5.53;;;;;;;;;;6239358;28;20183;-48
2023/03/23 03:15:08;;;;;;;5.80;4.93;;;;;;;;;;6244703;28;20195;-52
2023/03/23 03:18:14;;;;;;;5.30;4.80;;;;;;;;;;6262229;28;20183;-50
2023/03/23 03:21:16;;;;;;;6.03;5.17;;;;;;;;;;6242906;28;20190;-49
2023/03/23 03:24:19;;;;;;;6.03;5.43;;;;;;;;;;6243026;28;20210;-52
2023/03/23 03:27:23;;;;;;;6.30;5.13;;;;;;;;;;6244296;28;20230;-52
2023/03/23 03:30:27;;;;;;;7.10;5.10;;;;;;;;;;6228341;28;20230;-50
2023/03/23 03:33:30;;;;;;;8.30;5.37;;;;;;;;;;6250460;28;20208;-49
2023/03/23 03:36:34;;;;;;;6.23;5.60;;;;;;;;;;6250551;28;20187;-51
2023/03/23 03:39:36;;;;;;;6.40;5.50;;;;;;;;;;6250221;28;20191;-49
2023/03/23 03:42:42;;;;;;;6.20;5.30;;;;;;;;;;6233021;28;20211;-48
2023/03/23 03:45:43;;;;;;;6.40;5.33;;;;;;;;;;6246512;28;20206;-48
2023/03/23 03:48:44;;;;;;;6.13;5.53;;;;;;;;;;6255640;28;20198;-51
2023/03/23 03:51:45;;;;;;;6.50;5.07;;;;;;;;;;6267728;28;20217;-49
2023/03/23 03:54:46;;;;;;;7.67;5.13;;;;;;;;;;6243659;28;20191;-50
2023/03/23 03:57:48;;;;;;;5.67;5.13;;;;;;;;;;6235092;28;20385;-51
2023/03/23 04:00:49;;;;;;;5.37;4.70;;;;;;;;;;6247767;28;20198;-53
2023/03/23 04:03:50;;;;;;;6.17;5.47;;;;;;;;;;6252054;28;20199;-51
2023/03/23 04:06:51;;;;;;;7.10;5.30;;;;;;;;;;6242757;28;20229;-50
2023/03/23 04:09:53;;;;;;;8.13;5.40;;;;;;;;;;6267285;28;20200;-51
2023/03/23 04:12:54;;;;;;;5.93;5.33;;;;;;;;;;6259333;28;20219;-51
2023/03/23 04:15:55;;;;;;;7.00;5.00;;;;;;;;;;6259043;28;20195;-48
2023/03/23 04:18:56;;;;;;;6.27;5.27;;;;;;;;;;6231821;28;20190;-54
2023/03/23 04:21:58;;;;;;;7.30;5.10;;;;;;;;;;6243947;28;20198;-54
2023/03/23 04:25:00;;;;;;;6.53;5.50;;;;;;;;;;6264736;28;20206;-49
2023/03/23 04:28:01;;;;;;;6.40;5.67;;;;;;;;;;6249761;28;20222;-50
2023/03/23 04:31:02;;;;;;;6.40;5.67;;;;;;;;;;6263626;28;20241;-51
2023/03/23 04:34:04;;;;;;;8.33;5.70;;;;;;;;;;6263997;28;20218;-47
2023/03/23 04:37:05;;;;;;;8.57;5.97;;;;;;;;;;6265911;28;20198;-52
2023/03/23 04:40:10;;;;;;;8.07;5.33;;;;;;;;;;6262889;28;20190;-46
2023/03/23 04:43:12;;;;;;;8.13;5.37;;;;;;;;;;6251504;28;20254;-49
2023/03/23 04:46:17;;;;;;;8.23;5.90;;;;;;;;;;6225515;28;20223;-49
2023/03/23 04:49:20;;;;;;;6.47;5.80;;;;;;;;;;6228565;28;20210;-48
2023/03/23 04:52:21;;;;;;;7.63;5.93;;;;;;;;;;6260964;28;20229;-50
2023/03/23 04:55:22;;;;;;;7.20;5.40;;;;;;;;;;6225646;28;20200;-51
2023/03/23 04:58:24;;;;;;;6.83;6.03;;;;;;;;;;6254497;28;20284;-51
2023/03/23 05:01:27;;;;;;;7.00;5.20;;;;;;;;;;6259499;28;20191;-48
2023/03/23 05:04:28;;;;;;;8.53;6.07;;;;;;;;;;6245052;28;20222;-48
2023/03/23 05:07:29;;;;;;;9.40;6.83;;;;;;;;;;6265061;28;20225;-53
2023/03/23 05:10:30;;;;;;;7.07;5.87;;;;;;;;;;6253130;28;20190;-49
2023/03/23 05:13:32;;;;;;;6.67;5.90;;;;;;;;;;6221876;28;20195;-51
2023/03/23 05:16:33;;;;;;;7.20;5.97;;;;;;;;;;6248947;28;20214;-50
2023/03/23 05:19:34;;;;;;;6.73;5.50;;;;;;;;;;6228761;28;20201;-52
2023/03/23 05:22:36;;;;;;;8.20;5.37;;;;;;;;;;6242656;28;20201;-49
2023/03/23 05:25:39;;;;;;;8.80;6.60;;;7.60;71.50;;;;;;6225861;28;20218;-51
2023/03/23 05:28:41;;;;;;;8.43;6.17;;;5.90;77.60;;;;;;6239090;28;20199;-48
2023/03/23 05:31:42;;;;;;;8.17;6.53;;;6.00;77.50;;;;;;6246797;28;20230;-49
2023/03/23 05:34:43;;;;;;;7.50;5.63;;;6.00;77.40;;;;;;6227028;28;20244;-54
2023/03/23 05:37:44;;;;;;;7.43;5.90;;;6.00;77.40;;;;;;6230986;28;20198;-51
2023/03/23 05:40:45;;;;;;;7.47;5.47;;;6.10;77.30;;;;;;6263886;28;20202;-50
2023/03/23 05:43:46;;;;;;;6.47;5.47;;;6.10;77.30;;;;;;6245715;28;20269;-51
2023/03/23 05:46:47;;;;;;;7.17;5.90;;;6.20;77.20;;;;;;6228350;28;20274;-49
2023/03/23 05:49:48;;;;;;;9.67;5.57;;;6.20;77.20;;;;;;6259443;28;20277;-51
2023/03/23 05:52:48;;;;;;;7.13;5.87;;;6.30;77.10;;;;;;6223687;28;20201;-51
2023/03/23 05:55:49;;;;;;;6.77;5.57;;;6.40;77.30;;;;;;6224422;28;20226;-53
2023/03/23 05:58:50;;;;;;;7.50;5.43;;;6.40;77.40;;;;;;6239160;28;20217;-50
2023/03/23 06:01:53;;;;;;;8.70;6.13;;;6.50;77.20;;;;;;6225363;28;20198;-52
2023/03/23 06:04:57;;;;;;;8.17;5.80;;;;;;;;;;6253046;28;20286;-55
2023/03/23 06:07:58;;;;;;;6.27;5.67;;;;;;;;;;6255043;28;20194;-50
2023/03/23 06:10:59;;;;;;;8.70;6.10;;;;;;;;;;6222421;28;20206;-53
2023/03/23 06:14:00;;;;;;;8.47;6.00;;;;;;;;;;6221096;28;20190;-50
2023/03/23 06:17:01;;;;;;;8.60;5.77;;;6.60;76.80;;;;;;6223329;28;20191;-47
2023/03/23 06:20:07;;;;;;;6.77;6.00;;;7.20;76.30;;;;;;6220708;28;20240;-48
2023/03/23 06:23:08;;;;;;;7.00;5.80;;;7.20;76.10;;;;;;6235607;28;20202;-50
2023/03/23 06:26:10;;;;;;;7.30;5.50;;;;;;;;;;6224411;28;20214;-50
2023/03/23 06:29:12;;;;;;;9.00;6.07;;;;;;;;;;6230296;28;20256;-47
2023/03/23 06:32:13;;;;;;;6.93;5.67;;;;;;;;;;6226389;28;20234;-49
2023/03/23 06:35:15;;;;;;;7.30;5.77;;;;;;;;;;6258453;28;20191;-49
2023/03/23 06:38:16;;;;;;;8.03;5.63;;;;;;;;;;6252090;28;20189;-48
2023/03/23 06:41:17;;;;;;;7.40;6.00;;;7.80;75.20;;;;;;6224944;28;20202;-49
2023/03/23 06:44:18;;;;;;;7.70;5.80;;;8.10;74.60;;;;;;6218122;28;20285;-53
2023/03/23 06:47:19;;;;;;;9.30;5.80;;;8.30;74.20;;;;;;6226626;28;20245;-49
2023/03/23 06:50:19;;;;;;;7.43;5.97;;;8.40;73.90;;;;;;6230336;28;20196;-49
2023/03/23 06:53:20;;;;;;;11.27;6.30;;;8.60;73.80;;;;;;6245812;28;20190;-51
2023/03/23 06:56:21;;;;;;;7.33;6.07;;;8.70;73.70;;;;;;6225723;28;20237;-52
2023/03/23 06:59:22;;;;;;;8.87;5.93;;;8.90;72.90;;;;;;6221655;28;20194;-49
2023/03/23 07:02:23;;;;;;;9.17;5.73;;;9.00;72.10;;;;;;6236874;28;20203;-55
2023/03/23 07:05:25;;;;;;;6.73;5.97;;;9.20;71.60;;;;;;6227236;28;20684;-50
2023/03/23 07:08:26;;;;;;;7.70;6.43;;;9.20;70.50;;;;;;6238403;28;20190;-51
2023/03/23 07:11:27;;;;;;;6.50;5.83;;;9.40;69.80;;;;;;6232908;28;20201;-49
2023/03/23 07:14:29;;;;;;;10.00;6.30;;;9.50;70.10;;;;;;6222686;28;20209;-48
2023/03/23 07:17:30;;;;;;;7.00;5.43;;;9.60;69.00;;;;;;6244518;28;20229;-50
2023/03/23 07:20:32;;;;;;;8.73;6.70;;;9.80;67.20;;;;;;6232539;28;20191;-48
2023/03/23 07:23:32;;;;;;;8.47;7.20;;;10.00;66.80;;;;;;6223766;28;20201;-54
2023/03/23 07:26:33;;;;;;;8.83;6.73;;;10.10;67.00;;;;;;6223630;28;20222;-51
2023/03/23 07:29:35;;;;;;;8.40;6.70;;;10.30;66.20;;;;;;6237086;28;20186;-49
2023/03/23 07:32:36;;;;;;;9.73;6.27;;;10.50;65.60;;;;;;6249423;28;20236;-49
2023/03/23 07:35:37;;;;;;;9.77;6.50;;;10.70;65.00;;;;;;6223687;28;20195;-48
2023/03/23 07:38:38;;;;;;;8.27;6.80;;;10.90;64.50;;;;;;6224472;28;20202;-49
2023/03/23 07:41:39;;;;;;;9.77;6.50;;;11.20;64.60;;;;;;6248557;28;20245;-50
2023/03/23 07:44:39;;;;;;;12.20;6.33;;;11.50;63.80;;;;;;6236558;28;20190;-48
2023/03/23 07:47:40;;;;;;;9.53;6.77;;;11.70;61.90;;;;;;6230273;28;20288;-48
2023/03/23 07:50:41;;;;;;;8.40;5.90;;;11.90;61.10;;;;;;6246061;28;20178;-53
2023/03/23 07:53:44;;;;;;;9.97;6.60;;;12.10;61.80;;;;;;6248048;28;20250;-50
2023/03/23 07:56:45;;;;;;;8.90;7.17;;;12.20;62.00;;;;;;6248019;28;20199;-53
2023/03/23 07:59:46;;;;;;;12.07;6.43;;;12.40;61.70;;;;;;6223735;28;20195;-50
2023/03/23 08:02:48;;;;;;;8.37;5.67;;;12.50;60.90;;;;;;6223189;28;20329;-50
2023/03/23 08:05:49;;;;;;;6.47;5.20;;;12.70;58.40;;;;;;6225383;28;20224;-53
2023/03/23 08:08:51;;;;;;;8.50;5.63;;;12.90;59.00;;;;;;6236175;28;20189;-53
2023/03/23 08:11:51;;;;;;;6.13;5.40;;;13.10;57.90;;;;;;6247505;28;20183;-51
2023/03/23 08:14:53;;;;;;;10.63;5.37;;;13.10;57.20;;;;;;6224718;28;20191;-52
2023/03/23 08:17:54;;;;;;;6.20;5.60;;;13.30;56.60;;;;;;6247513;28;20303;-49
2023/03/23 08:20:55;;;;;;;7.17;5.67;;;13.50;56.20;;;;;;6261832;28;20203;-53
2023/03/23 08:23:56;;;;;;;7.20;4.93;;;13.60;55.20;;;;;;6225175;28;20249;-53
2023/03/23 08:26:57;;;;;;;7.03;5.60;;;13.60;55.20;;;;;;6243611;28;20210;-55
2023/03/23 08:29:58;;;;;;;9.70;5.60;;;13.90;55.30;;;;;;6247511;28;20193;-52
2023/03/23 08:33:00;;;;;;;10.70;5.60;;;14.00;55.50;;;;;;6252950;28;20260;-53
2023/03/23 08:36:01;;;;;;;10.20;5.93;;;14.10;54.20;;;;;;6225793;28;20330;-51
2023/03/23 08:39:04;;;;;;;8.10;5.73;;;14.30;53.70;;;;;;6230075;28;20190;-50
2023/03/23 08:42:05;;;;;;;7.83;5.63;;;14.40;53.50;;;;;;6248516;28;20200;-51
2023/03/23 08:45:08;;;;;;;6.37;4.87;;;14.50;53.10;;;;;;6239428;28;20199;-52
2023/03/23 08:48:08;;;;;;;9.07;5.33;;;14.50;53.20;;;;;;6239279;28;20195;-51
2023/03/23 08:51:10;;;;;;;7.97;5.20;;;14.60;53.10;;;;;;6228983;28;20191;-49
2023/03/23 08:54:11;;;;;;;7.07;5.10;;;14.80;52.40;;;;;;6226445;28;20191;-52
2023/03/23 08:57:12;;;;;;;7.83;5.97;;;14.90;53.90;;;;;;6224207;28;20203;-50
2023/03/23 09:00:17;;;;;;;7.43;5.60;;;15.10;52.50;;;;;;6231613;28;20320;-50
2023/03/23 09:03:18;;;;;;;9.27;6.00;;;15.30;53.00;;;;;;6245711;28;20210;-57
2023/03/23 09:06:19;;;;;;;8.03;5.57;;;15.40;51.20;;;;;;6245100;28;20218;-54
2023/03/23 09:09:19;;;;;;;8.47;5.90;;;15.50;51.50;;;;;;6230878;28;20221;-53
2023/03/23 09:12:20;;;;;;;8.63;4.90;;;15.60;51.20;;;;;;6229888;28;20193;-50
2023/03/23 09:15:22;;;;;;;8.93;5.43;;;15.80;50.50;;;;;;6230885;28;20199;-51
2023/03/23 09:18:22;;;;;;;10.00;5.30;;;15.80;50.70;;;;;;6229556;28;20214;-50
2023/03/23 09:21:25;;;;;;;8.20;5.10;;;15.90;50.40;;;;;;6232061;28;20194;-52
2023/03/23 09:24:26;;;;;;;8.03;5.47;;;16.00;49.60;;;;;;6247249;28;20222;-51
2023/03/23 09:27:27;;;;;;;8.17;5.47;;;16.20;49.20;;;;;;6239454;28;20219;-54
2023/03/23 09:30:30;;;;;;;8.00;5.10;;;16.30;50.30;;;;;;6221337;28;20274;-49
2023/03/23 09:33:34;;;;;;;7.27;4.97;;;16.40;49.30;;;;;;6241556;28;20183;-50
2023/03/23 09:36:38;;;;;;;8.70;5.20;;;16.40;49.40;;;;;;6225371;28;20218;-52
2023/03/23 09:39:39;;;;;;;10.57;5.17;;;16.50;48.70;;;;;;6230089;28;20198;-54
2023/03/23 09:42:41;;;;;;;6.10;5.00;;;16.50;48.50;;;;;;6240068;28;20230;-52
2023/03/23 09:45:57;;;;;;;5.53;4.60;;;16.50;49.80;;;;;;6240057;28;20306;-51
2023/03/23 09:49:02;;;;;;;8.30;4.73;;;16.50;49.80;;;;;;6277966;28;20259;-51
2023/03/23 09:52:10;;;;;;;8.00;4.87;;;16.50;48.80;;;;;;6238859;28;20187;-51
2023/03/23 09:55:15;;;;;;;6.00;4.97;;;16.60;48.00;;;;;;6246986;28;20237;-49
2023/03/23 09:58:40;;;;;;;6.00;4.33;;;16.60;49.40;;;;;;6245577;28;20214;-48
2023/03/23 10:01:47;;;;;;;7.30;4.43;;;16.70;48.50;;;;;;6244949;28;20215;-52
2023/03/23 10:04:52;;;;;;;5.60;4.60;;;16.80;48.40;;;;;;6246461;28;20218;-52
2023/03/23 10:07:54;;;;;;;8.10;4.47;;;17.00;48.40;;;;;;6238352;28;20219;-50
2023/03/23 10:11:38;;;;;;;4.70;4.27;;;17.20;48.00;;;;;;6240107;28;20194;-49
2023/03/23 10:14:47;;;;;;;8.10;5.10;;;17.20;47.90;;;;;;6241290;28;20182;-55
2023/03/23 10:18:35;;;;;;;5.73;4.70;;;17.20;47.50;;;;;;6246278;28;20190;-56
2023/03/23 10:21:40;;;;;;;4.47;4.07;;;17.20;47.50;;;;;;6239943;28;20238;-57
2023/03/23 10:25:08;;;;;;;6.53;4.87;;;17.20;47.00;;;;;;6223195;28;20188;-47
2023/03/23 10:28:17;;;;;;;5.97;4.47;;;17.30;47.00;;;;;;6252087;28;20195;-49
2023/03/23 10:31:40;;;;;;;4.57;4.07;;;17.40;47.50;;;;;;6246589;28;20235;-52
2023/03/23 10:34:55;;;;;;;5.33;4.83;;;17.40;46.90;;;;;;6241795;28;20191;-53
2023/03/23 10:38:03;;;;;;;8.40;5.00;;;17.50;46.90;;;;;;6264054;28;20282;-51
2023/03/23 10:41:11;;;;;;;5.97;5.33;;;17.50;46.30;;;;;;6251945;28;20258;-48
2023/03/23 10:44:22;;;;;;;6.77;5.23;;;17.60;46.00;;;;;;6249368;28;20186;-48
2023/03/23 10:47:24;;;;;;;5.93;4.87;;;17.60;44.80;;;;;;6244862;28;20215;-48
2023/03/23 10:50:33;;;;;;;7.57;5.40;;;17.80;45.60;;;;;;6249200;28;20213;-50
2023/03/23 10:53:58;;;;;;;6.53;5.83;;;17.90;45.20;;;;;;6228733;28;20185;-51
2023/03/23 10:56:59;;;;;;;7.30;5.67;;;18.00;44.50;;;;;;6243085;28;20191;-51
2023/03/23 11:00:06;;;;;;;6.90;5.87;;;18.10;45.00;;;;;;6248878;28;20205;-51
2023/03/23 11:03:25;;;;;;;10.90;6.47;;;18.30;44.40;;;;;;6242175;28;20191;-50
2023/03/23 11:06:33;;;;;;;12.60;6.40;;;18.50;44.00;;;;;;6250142;28;20207;-50
2023/03/23 11:09:37;;;;;;;10.37;6.93;;;18.70;44.70;;;;;;6250393;28;20188;-49
2023/03/23 11:12:38;;;;;;;11.53;7.50;;;18.80;44.30;;;;;;6249591;28;20274;-52
2023/03/23 11:15:41;;;;;;;17.40;9.03;;;19.00;42.30;;;;;;6242473;28;20204;-51
2023/03/23 11:18:42;;;;;;;17.57;8.63;;;19.20;43.40;;;;;;6243817;28;20246;-48
2023/03/23 11:21:57;;;;;;;9.53;7.20;;;19.50;42.30;;;;;;6227840;28;20190;-50
2023/03/23 11:25:04;;;;;;;11.93;6.87;;;19.70;42.40;;;;;;6233952;28;20188;-51
2023/03/23 11:28:05;;;;;;;8.87;6.70;;;20.00;43.00;;;;;;6238592;28;20195;-52
2023/03/23 11:31:06;;;;;;;9.40;6.33;;;20.10;41.10;;;;;;6229380;28;20307;-48
2023/03/23 11:34:20;;;;;;;11.63;6.93;;;20.10;41.20;;;;;;6264579;28;20205;-50
2023/03/23 11:37:33;;;;;;;9.23;6.97;;;20.10;40.30;;;;;;6248070;28;20187;-51
2023/03/23 11:40:47;;;;;;;10.57;6.80;;;20.10;40.90;;;;;;6249930;28;20193;-56
2023/03/23 11:43:52;;;;;;;10.73;6.73;;;20.10;41.10;;;;;;6241527;28;20187;-53
2023/03/23 11:47:01;;;;;;;10.77;6.83;;;20.00;40.30;;;;;;6241224;28;20245;-49
2023/03/23 11:50:11;;;;;;;10.50;7.30;;;20.10;41.00;;;;;;6238283;28;20191;-52
2023/03/23 11:53:54;;;;;;;8.07;6.50;;;20.00;40.70;;;;;;6244944;28;20190;-51
2023/03/23 11:56:56;;;;;;;7.67;6.47;;;20.20;41.10;;;;;;6251824;28;20279;-51
2023/03/23 12:00:04;;;;;;;7.20;5.20;;;20.50;41.70;;;;;;6243116;28;20183;-53
2023/03/23 12:03:25;;;;;;;25.27;9.10;;;;;;;;;;6237964;28;20196;-63
2023/03/23 12:06:31;;;;;;;11.37;6.73;;;;;;;;;;6249437;28;20215;-61
2023/03/23 12:09:51;;;;;;;8.67;6.57;;;;;;;;;;6250468;28;20198;-61
2023/03/23 12:13:01;;;;;;;8.97;6.37;;;;;;;;;;6241759;28;20188;-60
2023/03/23 12:16:21;;;;;;;9.63;7.73;;;;;;;;;;6242253;28;20194;-61
2023/03/23 12:19:22;;;;;;;7.97;6.93;;;;;;;;;;6247738;28;20237;-59
2023/03/23 12:22:27;;;;;;;8.80;6.40;;;;;;;;;;6242935;28;20189;-59
2023/03/23 12:25:29;;;;;;;9.00;6.37;;;;;;;;;;6269203;28;20210;-59
2023/03/23 12:28:33;;;;;;;10.80;6.93;;;;;;;;;;6258575;28;20186;-59
2023/03/23 12:31:43;;;;;;;8.07;6.17;;;;;;;;;;6253743;28;20237;-59
2023/03/23 12:34:59;;;;;;;8.80;7.33;;;;;;;;;;6248501;28;20198;-59
2023/03/23 12:38:18;;;;;;;7.37;6.37;;;;;;;;;;6247213;28;20206;-59
2023/03/23 12:41:46;;;;;;;8.27;5.93;;;;;;;;;;6247494;28;20282;-59
2023/03/23 12:45:08;;;;;;;11.00;6.10;;;;;;;;;;6237725;28;20217;-59
2023/03/23 12:48:42;;;;;;;7.00;5.83;;;21.00;42.10;;;;;;6224360;28;20203;-59
2023/03/23 12:51:49;;;;;;;11.17;7.17;;;;;;;;;;6227751;28;20339;-63
2023/03/23 12:54:52;;;;;;;7.33;6.37;;;;;;;;;;6239459;28;20191;-65
2023/03/23 12:57:59;;;;;;;10.33;7.60;;;;;;;;;;6249309;28;20194;-67
2023/03/23 13:01:01;;;;;;;9.80;6.77;;;;;;;;;;6243947;28;20188;-67
2023/03/23 13:04:17;;;;;;;9.33;6.60;;;;;;;;;;6245657;28;20273;-66
2023/03/23 13:07:22;;;;;;;9.00;5.90;;;;;;;;;;6253115;28;20219;-67
2023/03/23 13:10:27;;;;;;;10.80;6.83;;;;;;;;;;6248760;28;20191;-66
2023/03/23 13:13:41;;;;;;;9.97;7.17;;;;;;;;;;6248801;28;20187;-66
2023/03/23 13:16:48;;;;;;;8.30;6.87;;;;;;;;;;6248594;28;20263;-66
2023/03/23 13:20:15;;;;;;;6.83;5.63;;;;;;;;;;6247886;28;20194;-66
2023/03/23 13:23:19;;;;;;;7.30;6.03;;;;;;;;;;6243519;28;20245;-67
2023/03/23 13:26:21;;;;;;;6.70;6.03;;;;;;;;;;6230753;28;20239;-66
2023/03/23 13:29:24;;;;;;;7.30;6.53;;;;;;;;;;6238557;28;20187;-66
2023/03/23 13:32:45;;;;;;;8.10;6.63;;;;;;;;;;6262303;28;20257;-65
2023/03/23 13:35:46;;;;;;;9.77;6.87;;;;;;;;;;6238090;28;20190;-66
2023/03/23 13:38:51;;;;;;;6.27;5.37;;;;;;;;;;6234652;28;20189;-66
2023/03/23 13:42:07;;;;;;;8.57;7.13;;;;;;;;;;6252001;28;20277;-65
2023/03/23 13:45:17;;;;;;;7.17;6.10;;;;;;;;;;6251836;28;20277;-66
2023/03/23 13:48:20;;;;;;;7.33;6.57;;;;;;;;;;6244185;28;20191;-66
2023/03/23 13:51:35;;;;;;;7.53;6.63;;;;;;;;;;6259913;28;20190;-66
2023/03/23 13:54:44;;;;;;;6.27;5.67;;;;;;;;;;6246053;28;20188;-66
2023/03/23 13:57:58;;;;;;;7.30;6.70;;;;;;;;;;6251314;28;20250;-66
2023/03/23 14:01:11;;;;;;;8.63;6.77;;;;;;;;;;6254763;28;20198;-65
2023/03/23 14:04:17;;;;;;;8.00;6.20;;;;;;;;;;6241880;28;20214;-66
2023/03/23 14:07:19;;;;;;;6.80;6.03;;;;;;;;;;6247737;28;20210;-64
2023/03/23 14:10:20;;;;;;;7.13;5.97;;;;;;;;;;6259568;28;20199;-64
2023/03/23 14:13:23;;;;;;;6.67;5.90;;;;;;;;;;6248328;28;20201;-64
2023/03/23 14:16:29;;;;;;;8.30;6.50;;;;;;;;;;6248502;28;20190;-64
2023/03/23 14:19:31;;;;;;;8.83;6.47;;;;;;;;;;6255744;28;20198;-64
2023/03/23 14:22:35;;;;;;;6.60;6.00;;;;;;;;;;6247747;28;20204;-64
2023/03/23 14:25:36;;;;;;;7.20;6.07;;;;;;;;;;6247410;28;20221;-63
2023/03/23 14:28:42;;;;;;;7.40;5.93;;;;;;;;;;6250087;28;20190;-63
2023/03/23 14:31:43;;;;;;;7.27;6.27;;;;;;;;;;6259532;28;20306;-65
2023/03/23 14:34:47;;;;;;;7.27;5.77;;;;;;;;;;6252376;28;20190;-64
2023/03/23 14:37:48;;;;;;;9.87;6.03;;;;;;;;;;6238069;28;20240;-64
2023/03/23 14:40:49;;;;;;;8.17;6.90;;;;;;;;;;6260455;28;20221;-64
2023/03/23 14:43:50;;;;;;;7.47;6.10;;;;;;;;;;6262469;28;20190;-64
2023/03/23 14:46:51;;;;;;;11.60;5.83;;;;;;;;;;6247510;28;20213;-64
2023/03/23 14:49:57;;;;;;;6.77;5.50;;;;;;;;;;6251811;28;20236;-64
2023/03/23 14:52:59;;;;;;;6.80;5.90;;;;;;;;;;6244361;28;20187;-64
2023/03/23 14:56:03;;;;;;;7.13;5.73;;;;;;;;;;6244042;28;20191;-65
2023/03/23 14:59:06;;;;;;;7.97;6.20;;;;;;;;;;6236153;28;20191;-66
2023/03/23 15:02:10;;;;;;;6.90;5.90;;;;;;;;;;6263205;28;20191;-65
2023/03/23 15:05:15;;;;;;;8.40;6.27;;;;;;;;;;6244896;28;20194;-65
2023/03/23 15:08:20;;;;;;;7.70;6.00;;;;;;;;;;6258598;28;20198;-65
2023/03/23 15:11:24;;;;;;;7.53;5.50;;;;;;;;;;6237005;28;20283;-62
2023/03/23 15:14:58;;;;;;;8.00;5.80;;;;;;;;;;6245417;28;20245;-63
2023/03/23 15:18:00;;;;;;;8.77;5.93;;;;;;;;;;6210188;28;20241;-63
2023/03/23 15:21:09;;;;;;;5.93;5.30;;;;;;;;;;6237296;28;20190;-64
2023/03/23 15:24:32;;;;;;;5.73;4.70;;;;;;;;;;6244279;28;20188;-63
2023/03/23 15:27:40;;;;;;;7.67;5.43;;;;;;;;;;6246159;28;20273;-64
2023/03/23 15:30:47;;;;;;;5.67;5.00;;;;;;;;;;6250729;28;20222;-64
2023/03/23 15:33:52;;;;;;;9.17;6.10;;;;;;;;;;6246813;28;20237;-68
2023/03/23 15:36:59;;;;;;;8.47;5.23;;;;;;;;;;6241574;28;20199;-67
2023/03/23 15:40:00;;;;;;;5.03;4.53;;;;;;;;;;6244769;28;20191;-67
2023/03/23 15:43:20;;;;;;;5.50;4.73;;;;;;;;;;6250536;28;20281;-67
2023/03/23 15:46:22;;;;;;;7.23;5.70;;;;;;;;;;6239329;28;20211;-67
2023/03/23 15:49:24;;;;;;;6.07;4.73;;;;;;;;;;6257654;28;20195;-68
2023/03/23 15:52:25;;;;;;;6.87;4.10;;;;;;;;;;6234278;28;20190;-67
2023/03/23 15:55:28;;;;;;;5.67;4.40;;;;;;;;;;6263403;28;20194;-68
2023/03/23 15:58:29;;;;;;;5.00;4.13;;;;;;;;;;6245840;28;20183;-67
2023/03/23 16:01:31;;;;;;;6.53;4.50;;;;;;;;;;6227259;28;20195;-66
2023/03/23 16:04:32;;;;;;;5.70;4.43;;;;;;;;;;6231230;28;20205;-66
2023/03/23 16:07:33;;;;;;;6.70;4.37;;;;;;;;;;6258360;28;20218;-66
2023/03/23 16:10:34;;;;;;;4.20;3.73;;;;;;;;;;6252740;28;20190;-67
2023/03/23 16:13:35;;;;;;;6.53;4.27;;;;;;;;;;6245276;28;20190;-66
2023/03/23 16:16:38;;;;;;;6.63;4.30;;;;;;;;;;6231452;28;20213;-66
2023/03/23 16:19:39;;;;;;;9.10;4.37;;;;;;;;;;6267175;28;20195;-67
2023/03/23 16:22:40;;;;;;;6.50;3.90;;;;;;;;;;6266562;28;20240;-67
2023/03/23 16:25:41;;;;;;;5.50;4.10;;;;;;;;;;6252380;28;20222;-67
2023/03/23 16:28:43;;;;;;;5.50;4.30;;;;;;;;;;6266228;28;20207;-67
2023/03/23 16:31:44;;;;;;;4.13;3.73;;;;;;;;;;6245293;28;20241;-67
2023/03/23 16:34:45;;;;;;;8.30;4.40;;;;;;;;;;6264752;28;20194;-68
2023/03/23 16:37:47;;;;;;;8.13;4.10;;;;;;;;;;6224345;28;20197;-67
2023/03/23 16:40:48;;;;;;;7.93;4.30;;;;;;;;;;6248990;28;20194;-66
2023/03/23 16:43:50;;;;;;;6.97;3.97;;;;;;;;;;6264103;28;20225;-67
2023/03/23 16:46:51;;;;;;;5.40;3.97;;;;;;;;;;6231287;28;20210;-66
2023/03/23 16:49:52;;;;;;;5.57;4.00;;;;;;;;;;6232955;28;20198;-67
2023/03/23 16:52:53;;;;;;;5.00;3.90;;;;;;;;;;6265290;28;20222;-67
2023/03/23 16:55:56;;;;;;;4.40;4.00;;;;;;;;;;6265032;28;20191;-67
2023/03/23 16:58:57;;;;;;;7.93;4.50;;;;;;;;;;6262914;28;20221;-67
2023/03/23 17:02:02;;;;;;;5.50;4.40;;;;;;;;;;6253750;28;20194;-67
2023/03/23 17:05:03;;;;;;;5.13;4.03;;;;;;;;;;6263897;28;20227;-67
2023/03/23 17:08:04;;;;;;;4.00;3.60;;;;;;;;;;6249624;28;20225;-67
2023/03/23 17:11:06;;;;;;;5.97;4.47;;;;;;;;;;6231464;28;20249;-68
2023/03/23 17:14:07;;;;;;;6.20;3.87;;;;;;;;;;6259573;28;20223;-68
2023/03/23 17:17:08;;;;;;;8.33;4.10;;;;;;;;;;6229086;28;20244;-68
2023/03/23 17:20:10;;;;;;;8.43;4.23;;;;;;;;;;6245779;28;20206;-68
2023/03/23 17:23:11;;;;;;;6.77;3.70;;;;;;;;;;6270013;28;20195;-67
2023/03/23 17:26:12;;;;;;;4.70;4.30;;;;;;;;;;6248854;28;20289;-66
2023/03/23 17:29:13;;;;;;;4.97;4.20;;;;;;;;;;6249913;28;20320;-67
2023/03/23 17:32:15;;;;;;;6.40;4.20;;;;;;;;;;6254257;28;20244;-67